Time;durP1;ratioP1;P1;durP2;ratioP2;P2;SDS_P1;SDS_P2;PMS_P1;PMS_P2;Temp;Humidity;BMP_temperature;BMP_pressure;BME280_temperature;BME280_humidity;BME280_pressure;Samples;Min_cycle;Max_cycle;Signal;HPM_P1;HPM_P2
2023/03/30 00:01:21;;;;;;;21.10;19.40;;;8.70;99.90;;;;;;4729485;30;20193;-43
2023/03/30 00:03:48;;;;;;;21.80;20.03;;;8.70;99.90;;;;;;4733970;30;20446;-45
2023/03/30 00:06:21;;;;;;;20.00;18.50;;;8.70;99.90;;;;;;4733941;30;20197;-44
2023/03/30 00:08:48;;;;;;;20.10;18.60;;;8.60;99.90;;;;;;4730300;30;20489;-44
2023/03/30 00:11:16;;;;;;;21.67;19.93;;;8.60;99.90;;;;;;4732798;30;20482;-42
2023/03/30 00:13:43;;;;;;;20.40;18.87;;;8.60;99.90;;;;;;4725130;30;20475;-43
2023/03/30 00:16:11;;;;;;;21.27;19.27;;;8.50;99.90;;;;;;4735356;30;20538;-43
2023/03/30 00:18:38;;;;;;;20.73;19.00;;;8.60;99.90;;;;;;4736043;30;20483;-42
2023/03/30 00:21:04;;;;;;;20.53;18.87;;;8.60;99.90;;;;;;4736856;30;21129;-40
2023/03/30 00:23:31;;;;;;;20.10;18.50;;;8.60;99.90;;;;;;4731019;30;20954;-42
2023/03/30 00:25:57;;;;;;;20.10;18.60;;;8.60;99.90;;;;;;4726867;30;20458;-40
2023/03/30 00:28:25;;;;;;;19.83;18.33;;;8.70;99.90;;;;;;4728997;30;20900;-41
2023/03/30 00:30:52;;;;;;;19.40;18.00;;;8.70;99.90;;;;;;4738183;30;20437;-42
2023/03/30 00:33:18;;;;;;;21.13;19.43;;;8.80;99.90;;;;;;4728297;30;20440;-42
2023/03/30 00:35:51;;;;;;;19.43;18.03;;;8.80;99.90;;;;;;4739780;30;20602;-44
2023/03/30 00:38:16;;;;;;;20.80;19.07;;;8.90;99.90;;;;;;4742948;30;20431;-41
2023/03/30 00:40:50;;;;;;;19.63;18.23;;;8.90;99.90;;;;;;4730560;30;21572;-45
2023/03/30 00:43:16;;;;;;;19.17;17.77;;;8.90;99.90;;;;;;4734797;30;20189;-43
2023/03/30 00:45:41;;;;;;;20.00;18.50;;;8.90;99.90;;;;;;4728220;30;20559;-41
2023/03/30 00:48:19;;;;;;;19.63;18.13;;;9.00;99.90;;;;;;4729591;30;20196;-41
2023/03/30 00:51:09;;;;;;;20.07;18.37;;;9.00;99.90;;;;;;4732995;30;20200;-43
2023/03/30 00:53:49;;;;;;;20.27;18.77;;;9.00;99.90;;;;;;4727489;30;20932;-43
2023/03/30 00:56:18;;;;;;;21.20;19.53;;;9.00;99.90;;;;;;4728900;30;20439;-44
2023/03/30 00:58:45;;;;;;;19.53;18.03;;;9.00;99.90;;;;;;4730024;30;20455;-41
2023/03/30 01:01:17;;;;;;;19.60;18.30;;;9.00;99.90;;;;;;4731791;30;20483;-41
2023/03/30 01:03:46;;;;;;;19.40;17.90;;;9.00;99.90;;;;;;4737840;30;20561;-41
2023/03/30 01:06:16;;;;;;;20.23;18.73;;;9.10;99.90;;;;;;4739952;30;20454;-41
2023/03/30 01:08:43;;;;;;;20.00;18.50;;;9.20;99.90;;;;;;4729762;30;20458;-42
2023/03/30 01:11:08;;;;;;;20.40;18.80;;;9.20;99.90;;;;;;4740235;30;20478;-42
2023/03/30 01:13:37;;;;;;;20.03;18.33;;;9.20;99.90;;;;;;4725004;30;20458;-41
2023/03/30 01:16:34;;;;;;;21.20;19.60;;;9.10;99.90;;;;;;4739100;30;20212;-42
2023/03/30 01:19:34;;;;;;;20.50;18.63;;;9.00;99.90;;;;;;4727848;30;20446;-41
2023/03/30 01:22:22;;;;;;;21.30;19.53;;;8.90;99.90;;;;;;4736250;30;20474;-41
2023/03/30 01:25:41;;;;;;;20.23;18.73;;;8.90;99.90;;;;;;4734556;30;20450;-44
2023/03/30 01:28:39;;;;;;;20.17;18.57;;;8.80;99.90;;;;;;4660106;30;20451;-42
2023/03/30 01:31:24;;;;;;;19.90;18.30;;;8.80;99.90;;;;;;4731912;30;20569;-42
2023/03/30 01:34:08;;;;;;;20.30;18.80;;;8.80;99.90;;;;;;4733546;30;20451;-40
2023/03/30 01:36:49;;;;;;;20.07;18.33;;;8.80;99.90;;;;;;4740512;30;20450;-40
2023/03/30 01:39:40;;;;;;;21.20;19.50;;;8.90;99.90;;;;;;4732690;30;21028;-43
2023/03/30 01:42:12;;;;;;;19.93;18.43;;;9.00;99.90;;;;;;4737842;30;20827;-42
2023/03/30 01:44:50;;;;;;;20.70;19.10;;;8.90;99.90;;;;;;4738448;30;20507;-41
2023/03/30 01:47:31;;;;;;;21.53;19.83;;;8.90;99.90;;;;;;4732551;30;20903;-42
2023/03/30 01:50:00;;;;;;;21.00;19.27;;;8.90;99.90;;;;;;4736869;30;20474;-42
2023/03/30 01:52:53;;;;;;;21.50;19.60;;;8.90;99.90;;;;;;4720941;30;20506;-40
2023/03/30 01:55:26;;;;;;;22.50;20.60;;;8.90;99.90;;;;;;4735869;30;20883;-41
2023/03/30 01:58:02;;;;;;;21.93;20.17;;;8.90;99.90;;;;;;4734640;30;20439;-42
2023/03/30 02:00:28;;;;;;;22.33;20.50;;;8.90;99.90;;;;;;4739717;30;20442;-41
2023/03/30 02:03:05;;;;;;;21.97;20.07;;;8.90;99.90;;;;;;4735588;30;20447;-41
2023/03/30 02:05:32;;;;;;;23.57;21.47;;;8.80;99.90;;;;;;4722154;30;21363;-49
2023/03/30 02:08:06;;;;;;;22.80;21.00;;;8.90;99.90;;;;;;4740073;30;20458;-45
2023/03/30 02:10:35;;;;;;;23.30;21.40;;;8.80;99.90;;;;;;4734021;30;20482;-50
2023/03/30 02:13:04;;;;;;;24.17;22.07;;;8.90;99.90;;;;;;4741236;30;20479;-51
2023/03/30 02:15:36;;;;;;;24.47;22.37;;;8.80;99.90;;;;;;4732912;30;20538;-46
2023/03/30 02:18:04;;;;;;;23.30;21.20;;;8.80;99.90;;;;;;4737744;30;20445;-47
2023/03/30 02:20:31;;;;;;;23.23;21.10;;;8.90;99.90;;;;;;4724716;30;20501;-50
2023/03/30 02:22:58;;;;;;;24.47;22.33;;;8.90;99.90;;;;;;4725372;30;20511;-49
2023/03/30 02:25:24;;;;;;;25.27;22.97;;;8.90;99.90;;;;;;4725712;30;20455;-46
2023/03/30 02:27:50;;;;;;;24.43;22.23;;;8.90;99.90;;;;;;4724780;30;20436;-46
2023/03/30 02:30:16;;;;;;;25.57;23.27;;;8.90;99.90;;;;;;4726234;30;20493;-47
2023/03/30 02:32:48;;;;;;;25.33;23.17;;;8.90;99.90;;;;;;4727547;30;20481;-47
2023/03/30 02:35:36;;;;;;;25.37;23.20;;;9.00;99.90;;;;;;4722430;30;20524;-46
2023/03/30 02:38:31;;;;;;;27.00;24.30;;;9.00;99.90;;;;;;4731585;30;20449;-47
2023/03/30 02:41:27;;;;;;;26.13;23.83;;;9.00;99.90;;;;;;4730718;30;20446;-47
2023/03/30 02:44:14;;;;;;;27.10;24.80;;;9.00;99.90;;;;;;4730114;30;20619;-49
2023/03/30 02:46:52;;;;;;;26.90;24.50;;;9.00;99.90;;;;;;4726545;30;20855;-48
2023/03/30 02:49:30;;;;;;;27.07;24.60;;;8.90;99.90;;;;;;4732288;30;20499;-48
2023/03/30 02:52:14;;;;;;;27.57;25.00;;;9.00;99.90;;;;;;4731985;30;20479;-49
2023/03/30 02:54:43;;;;;;;29.23;26.53;;;9.00;99.90;;;;;;4730633;30;21256;-50
2023/03/30 02:57:19;;;;;;;28.13;25.37;;;9.00;99.90;;;;;;4731270;30;20449;-49
2023/03/30 02:59:55;;;;;;;29.60;26.90;;;9.00;99.90;;;;;;4730700;30;20892;-45
2023/03/30 03:02:32;;;;;;;26.43;24.03;;;8.90;99.90;;;;;;4736078;30;20799;-48
2023/03/30 03:05:03;;;;;;;27.50;25.00;;;9.00;99.90;;;;;;4724627;30;20462;-49
2023/03/30 03:07:31;;;;;;;29.03;26.33;;;8.90;99.90;;;;;;4727727;30;20431;-50
2023/03/30 03:09:56;;;;;;;26.90;24.50;;;8.90;99.90;;;;;;4734381;30;20444;-51
2023/03/30 03:12:22;;;;;;;27.20;24.60;;;9.00;99.90;;;;;;4730100;30;21266;-46
2023/03/30 03:14:48;;;;;;;28.87;26.10;;;9.00;99.90;;;;;;4735708;30;20292;-45
2023/03/30 03:17:15;;;;;;;28.73;26.03;;;9.00;99.90;;;;;;4733088;30;20201;-46
2023/03/30 03:19:41;;;;;;;28.40;25.70;;;9.00;99.90;;;;;;4733375;30;20717;-50
2023/03/30 03:22:06;;;;;;;27.40;24.90;;;9.00;99.90;;;;;;4733140;30;20492;-47
2023/03/30 03:24:32;;;;;;;26.70;24.00;;;9.00;99.90;;;;;;4731959;30;20235;-46
2023/03/30 03:26:58;;;;;;;26.97;24.37;;;8.90;99.90;;;;;;4731437;30;20218;-47
2023/03/30 03:29:24;;;;;;;26.57;24.07;;;9.00;99.90;;;;;;4731196;30;20458;-50
2023/03/30 03:31:49;;;;;;;27.20;24.60;;;9.00;99.90;;;;;;4734416;30;20731;-50
2023/03/30 03:34:16;;;;;;;27.37;24.87;;;8.90;99.90;;;;;;4738573;30;20204;-46
2023/03/30 03:36:42;;;;;;;26.67;23.97;;;8.90;99.90;;;;;;4740627;30;20223;-47
2023/03/30 03:39:08;;;;;;;24.63;22.23;;;8.90;99.90;;;;;;4728901;30;20487;-49
2023/03/30 03:41:33;;;;;;;26.23;23.57;;;8.90;99.90;;;;;;4728241;30;20209;-47
2023/03/30 03:43:59;;;;;;;26.10;23.60;;;8.90;99.90;;;;;;4735935;30;20233;-50
2023/03/30 03:46:24;;;;;;;26.60;24.30;;;8.90;99.90;;;;;;4734304;30;20256;-46
2023/03/30 03:48:50;;;;;;;27.33;24.90;;;8.90;99.90;;;;;;4729949;30;20338;-47
2023/03/30 03:51:16;;;;;;;26.93;24.50;;;8.90;99.90;;;;;;4728096;30;20304;-50
2023/03/30 03:53:41;;;;;;;26.53;24.17;;;8.80;99.90;;;;;;4725461;30;20263;-50
2023/03/30 03:56:07;;;;;;;26.63;24.13;;;8.80;99.90;;;;;;4736064;30;20195;-49
2023/03/30 03:58:33;;;;;;;27.13;24.73;;;8.80;99.90;;;;;;4723481;30;20197;-47
2023/03/30 04:01:01;;;;;;;25.23;22.90;;;8.80;99.90;;;;;;4729649;30;20453;-48
2023/03/30 04:03:27;;;;;;;25.97;23.37;;;8.80;99.90;;;;;;4724482;30;20440;-49
2023/03/30 04:05:53;;;;;;;26.87;24.57;;;8.80;99.90;;;;;;4731193;30;20461;-49
2023/03/30 04:08:18;;;;;;;27.17;24.63;;;8.70;99.90;;;;;;4723537;30;20460;-48
2023/03/30 04:10:44;;;;;;;26.20;23.77;;;8.60;99.90;;;;;;4723224;30;20204;-48
2023/03/30 04:13:10;;;;;;;25.57;23.33;;;8.60;99.90;;;;;;4733232;30;20227;-52
2023/03/30 04:15:36;;;;;;;26.67;24.20;;;8.60;99.90;;;;;;4730844;30;20507;-50
2023/03/30 04:18:01;;;;;;;26.37;23.97;;;8.50;99.90;;;;;;4733129;30;20720;-47
2023/03/30 04:20:28;;;;;;;26.93;24.30;;;8.50;99.90;;;;;;4735096;30;20193;-51
2023/03/30 04:22:54;;;;;;;24.77;22.67;;;8.40;99.90;;;;;;4724579;30;20281;-46
2023/03/30 04:25:24;;;;;;;25.73;23.37;;;8.50;99.90;;;;;;4735076;30;21248;-49
2023/03/30 04:27:50;;;;;;;25.73;23.43;;;8.50;99.90;;;;;;4739239;30;20437;-46
2023/03/30 04:30:17;;;;;;;26.97;24.63;;;8.50;99.90;;;;;;4732652;30;20437;-51
2023/03/30 04:32:45;;;;;;;27.33;24.83;;;8.50;99.90;;;;;;4731028;30;20477;-49
2023/03/30 04:35:13;;;;;;;27.13;24.87;;;8.50;99.90;;;;;;4724166;30;20455;-49
2023/03/30 04:37:40;;;;;;;27.07;24.53;;;8.50;99.90;;;;;;4720798;30;20512;-47
2023/03/30 04:40:11;;;;;;;27.37;24.87;;;8.40;99.90;;;;;;4734364;30;20476;-49
2023/03/30 04:42:37;;;;;;;29.63;26.83;;;8.40;99.90;;;;;;4739686;30;20436;-47
2023/03/30 04:45:05;;;;;;;27.87;25.23;;;8.40;99.90;;;;;;4721677;30;20617;-48
2023/03/30 04:47:31;;;;;;;28.83;26.33;;;8.40;99.90;;;;;;4738144;30;20556;-47
2023/03/30 04:49:57;;;;;;;27.30;24.60;;;8.40;99.90;;;;;;4738115;30;20489;-46
2023/03/30 04:52:22;;;;;;;27.07;24.57;;;8.50;99.90;;;;;;4730054;30;20568;-49
2023/03/30 04:54:48;;;;;;;28.63;26.03;;;8.50;99.90;;;;;;4739611;30;20203;-49
2023/03/30 04:57:15;;;;;;;27.90;25.33;;;8.50;99.90;;;;;;4724082;30;20238;-50
2023/03/30 04:59:42;;;;;;;27.70;25.20;;;8.50;99.90;;;;;;4738847;30;20310;-48
2023/03/30 05:02:08;;;;;;;25.80;23.60;;;8.50;99.90;;;;;;4732218;30;20454;-47
2023/03/30 05:04:34;;;;;;;26.00;23.70;;;8.60;99.90;;;;;;4729847;30;20492;-45
2023/03/30 05:07:01;;;;;;;27.77;25.20;;;8.60;99.90;;;;;;4739498;30;20438;-45
2023/03/30 05:09:27;;;;;;;27.53;24.97;;;8.60;99.90;;;;;;4738379;30;20435;-46
2023/03/30 05:11:52;;;;;;;27.00;24.60;;;8.60;99.90;;;;;;4725304;30;20495;-47
2023/03/30 05:14:18;;;;;;;27.07;24.67;;;8.60;99.90;;;;;;4737177;30;20926;-50
2023/03/30 05:16:43;;;;;;;26.30;23.90;;;8.60;99.90;;;;;;4738647;30;20201;-47
2023/03/30 05:19:09;;;;;;;27.50;25.03;;;8.70;99.90;;;;;;4739626;30;20203;-50
2023/03/30 05:21:35;;;;;;;26.30;24.00;;;8.70;99.90;;;;;;4740092;30;20659;-49
2023/03/30 05:24:00;;;;;;;25.70;23.40;;;8.80;99.90;;;;;;4742589;30;20200;-47
2023/03/30 05:26:26;;;;;;;27.57;24.97;;;8.80;99.90;;;;;;4741838;30;20724;-47
2023/03/30 05:28:53;;;;;;;26.47;24.17;;;8.90;99.90;;;;;;4742600;30;20679;-48
2023/03/30 05:31:19;;;;;;;26.73;24.03;;;8.90;99.90;;;;;;4742199;30;20481;-51
2023/03/30 05:33:45;;;;;;;25.87;23.67;;;9.10;99.90;;;;;;4738393;30;20443;-47
2023/03/30 05:36:12;;;;;;;25.60;23.40;;;9.00;99.90;;;;;;4741509;30;20501;-46
2023/03/30 05:38:37;;;;;;;27.17;24.77;;;9.10;99.90;;;;;;4742520;30;20434;-47
2023/03/30 05:41:05;;;;;;;24.87;22.67;;;9.10;99.90;;;;;;4742427;30;20445;-45
2023/03/30 05:43:32;;;;;;;25.23;22.83;;;9.20;99.90;;;;;;4742119;30;20521;-48
2023/03/30 05:45:57;;;;;;;25.10;22.90;;;9.20;99.90;;;;;;4742223;30;20487;-48
2023/03/30 05:48:23;;;;;;;25.97;23.57;;;9.20;99.90;;;;;;4739940;30;20847;-50
2023/03/30 05:50:48;;;;;;;24.67;22.43;;;9.40;99.90;;;;;;4738850;30;20193;-48
2023/03/30 05:53:15;;;;;;;24.67;22.53;;;9.40;99.90;;;;;;4735712;30;20286;-50
2023/03/30 05:55:48;;;;;;;24.40;22.20;;;9.40;99.90;;;;;;4740508;30;20192;-51
2023/03/30 05:58:15;;;;;;;24.33;22.13;;;9.50;99.90;;;;;;4731772;30;20467;-48
2023/03/30 06:00:42;;;;;;;24.80;22.03;;;9.50;99.90;;;;;;4741588;30;20972;-50
2023/03/30 06:03:09;;;;;;;25.07;22.87;;;9.60;99.90;;;;;;4737981;30;20442;-52
2023/03/30 06:05:37;;;;;;;26.50;24.20;;;9.70;99.90;;;;;;4741058;30;20443;-47
2023/03/30 06:08:04;;;;;;;23.17;21.07;;;9.70;99.90;;;;;;4733587;30;20461;-49
2023/03/30 06:10:30;;;;;;;24.10;22.00;;;9.70;99.90;;;;;;4738141;30;20423;-46
2023/03/30 06:12:55;;;;;;;25.37;23.17;;;9.70;99.90;;;;;;4740614;30;20474;-51
2023/03/30 06:15:21;;;;;;;24.43;22.07;;;9.80;99.90;;;;;;4741819;30;20923;-44
2023/03/30 06:17:47;;;;;;;24.87;22.67;;;9.80;99.90;;;;;;4736207;30;20200;-41
2023/03/30 06:20:13;;;;;;;24.20;22.00;;;9.90;99.90;;;;;;4740313;30;20207;-41
2023/03/30 06:22:42;;;;;;;24.60;22.50;;;10.00;99.90;;;;;;4734883;30;20454;-47
2023/03/30 06:25:08;;;;;;;24.13;21.93;;;10.00;99.90;;;;;;4736140;30;20582;-52
2023/03/30 06:27:35;;;;;;;24.90;22.60;;;10.00;99.90;;;;;;4741552;30;20510;-51
2023/03/30 06:30:01;;;;;;;25.50;23.03;;;10.10;99.90;;;;;;4726756;30;20459;-46
2023/03/30 06:32:26;;;;;;;25.33;23.10;;;10.20;99.90;;;;;;4741120;30;20827;-47
2023/03/30 06:34:52;;;;;;;24.97;22.77;;;10.20;99.90;;;;;;4736919;30;20455;-49
2023/03/30 06:37:19;;;;;;;25.00;22.80;;;10.30;99.90;;;;;;4737526;30;20212;-49
2023/03/30 06:39:45;;;;;;;25.00;22.73;;;10.30;99.90;;;;;;4741605;30;20881;-49
2023/03/30 06:42:12;;;;;;;24.40;22.10;;;10.30;99.90;;;;;;4740114;30;20494;-47
2023/03/30 06:44:38;;;;;;;24.23;22.13;;;10.40;99.90;;;;;;4738963;30;20582;-48
2023/03/30 06:47:04;;;;;;;23.67;21.67;;;10.60;99.90;;;;;;4725073;30;20243;-50
2023/03/30 06:49:30;;;;;;;24.30;22.10;;;10.60;99.90;;;;;;4734273;30;20459;-50
2023/03/30 06:51:56;;;;;;;24.37;22.17;;;10.80;99.90;;;;;;4735564;30;20484;-46
2023/03/30 06:54:22;;;;;;;24.93;22.57;;;10.90;99.90;;;;;;4735052;30;20454;-47
2023/03/30 06:56:48;;;;;;;23.33;21.33;;;10.90;99.90;;;;;;4729590;30;20206;-49
2023/03/30 06:59:14;;;;;;;24.43;22.17;;;10.80;99.90;;;;;;4741107;30;20293;-41
2023/03/30 07:01:40;;;;;;;23.80;21.73;;;10.80;99.90;;;;;;4738073;30;20439;-41
2023/03/30 07:04:06;;;;;;;23.40;21.40;;;10.80;99.90;;;;;;4739248;30;21350;-50
2023/03/30 07:06:32;;;;;;;25.30;22.97;;;10.80;99.90;;;;;;4729199;30;20807;-47
2023/03/30 07:08:57;;;;;;;24.23;22.13;;;10.80;99.90;;;;;;4734457;30;20207;-48
2023/03/30 07:11:23;;;;;;;22.20;20.20;;;10.80;99.90;;;;;;4731576;30;20224;-46
2023/03/30 07:13:48;;;;;;;24.13;22.00;;;10.80;99.90;;;;;;4741292;30;20197;-50
2023/03/30 07:16:14;;;;;;;23.13;21.20;;;10.80;99.90;;;;;;4740435;30;20195;-50
2023/03/30 07:18:40;;;;;;;22.93;20.83;;;10.90;99.90;;;;;;4740719;30;20211;-46
2023/03/30 07:21:05;;;;;;;23.00;20.90;;;10.90;99.90;;;;;;4737252;30;20392;-48
2023/03/30 07:23:31;;;;;;;22.90;20.80;;;11.10;99.90;;;;;;4739091;30;20186;-49
2023/03/30 07:25:57;;;;;;;22.67;20.57;;;11.20;99.90;;;;;;4740714;30;20202;-51
2023/03/30 07:28:23;;;;;;;21.53;19.70;;;11.40;99.90;;;;;;4740195;30;20199;-47
2023/03/30 07:30:49;;;;;;;21.47;19.77;;;11.50;99.90;;;;;;4739762;30;20223;-49
2023/03/30 07:33:15;;;;;;;22.90;20.80;;;11.70;99.90;;;;;;4736643;30;20865;-47
2023/03/30 07:35:48;;;;;;;21.50;19.83;;;11.90;99.90;;;;;;4735375;30;20463;-49
2023/03/30 07:38:14;;;;;;;21.47;19.67;;;12.10;99.90;;;;;;4735194;30;20204;-49
2023/03/30 07:40:40;;;;;;;20.40;18.67;;;12.20;99.90;;;;;;4736761;30;20463;-47
2023/03/30 07:43:06;;;;;;;20.27;18.60;;;12.40;99.90;;;;;;4719953;30;20236;-46
2023/03/30 07:45:32;;;;;;;21.87;20.07;;;12.60;99.90;;;;;;4729794;30;20283;-49
2023/03/30 07:47:58;;;;;;;21.50;19.50;;;12.70;99.90;;;;;;4739896;30;20466;-50
2023/03/30 07:50:24;;;;;;;22.63;20.70;;;12.80;99.90;;;;;;4739730;30;20933;-46
2023/03/30 07:52:50;;;;;;;23.60;21.60;;;12.90;99.90;;;;;;4733558;30;20492;-51
2023/03/30 07:55:16;;;;;;;23.53;21.53;;;13.10;99.90;;;;;;4724369;30;20516;-52
2023/03/30 07:57:43;;;;;;;21.03;19.17;;;13.30;99.90;;;;;;4737017;30;20458;-46
2023/03/30 08:00:09;;;;;;;23.23;21.13;;;13.40;99.90;;;;;;4737148;30;20526;-49
2023/03/30 08:02:35;;;;;;;23.70;21.60;;;13.50;99.90;;;;;;4731717;30;21041;-52
2023/03/30 08:05:01;;;;;;;24.43;22.23;;;13.60;99.90;;;;;;4739610;30;20438;-51
2023/03/30 08:07:28;;;;;;;23.17;21.17;;;13.70;99.90;;;;;;4740349;30;20445;-51
2023/03/30 08:09:54;;;;;;;23.63;21.53;;;13.70;99.90;;;;;;4740263;30;20450;-46
2023/03/30 08:12:20;;;;;;;23.20;21.03;;;13.70;99.90;;;;;;4739802;30;20923;-46
2023/03/30 08:14:45;;;;;;;22.93;20.90;;;13.70;99.90;;;;;;4723112;30;20199;-48
2023/03/30 08:17:11;;;;;;;23.93;21.83;;;13.80;99.90;;;;;;4732927;30;20215;-47
2023/03/30 08:19:37;;;;;;;23.20;21.30;;;13.90;99.90;;;;;;4739935;30;20192;-49
2023/03/30 08:22:03;;;;;;;21.90;20.20;;;14.20;99.90;;;;;;4728916;30;20668;-48
2023/03/30 08:24:28;;;;;;;22.20;20.50;;;14.30;99.00;;;;;;4729158;30;20544;-52
2023/03/30 08:26:54;;;;;;;24.40;22.33;;;14.50;98.80;;;;;;4734998;30;20193;-50
2023/03/30 08:29:20;;;;;;;22.20;20.13;;;14.70;98.30;;;;;;4732237;30;20613;-46
2023/03/30 08:31:46;;;;;;;21.97;20.27;;;14.80;98.00;;;;;;4734597;30;20479;-50
2023/03/30 08:34:12;;;;;;;23.73;21.77;;;14.70;97.50;;;;;;4738632;30;20439;-47
2023/03/30 08:36:38;;;;;;;23.00;21.20;;;14.60;97.50;;;;;;4729151;30;20483;-47
2023/03/30 08:39:04;;;;;;;21.87;20.10;;;14.60;97.50;;;;;;4723566;30;20276;-49
2023/03/30 08:41:44;;;;;;;23.00;20.70;;;14.70;97.50;;;;;;4723248;30;20442;-52
2023/03/30 08:44:33;;;;;;;23.17;21.27;;;14.60;97.50;;;;;;4724119;30;20844;-49
2023/03/30 08:47:02;;;;;;;24.23;22.23;;;14.80;97.80;;;;;;4723238;30;20636;-49
2023/03/30 08:49:36;;;;;;;24.30;22.10;;;14.90;97.50;;;;;;4723411;30;21334;-48
2023/03/30 08:52:03;;;;;;;25.20;23.07;;;15.00;96.80;;;;;;4730036;30;20479;-48
2023/03/30 08:54:30;;;;;;;23.43;21.43;;;15.00;96.80;;;;;;4739998;30;20450;-50
2023/03/30 08:57:14;;;;;;;24.20;22.03;;;14.80;96.60;;;;;;4740962;30;20462;-49
2023/03/30 09:00:05;;;;;;;24.70;22.70;;;14.60;96.80;;;;;;4743153;30;20431;-47
2023/03/30 09:02:35;;;;;;;24.17;22.00;;;14.50;97.20;;;;;;4723971;30;20443;-49
2023/03/30 09:05:21;;;;;;;25.43;23.33;;;14.40;97.40;;;;;;4742961;30;20470;-43
2023/03/30 09:07:50;;;;;;;23.33;21.30;;;14.40;97.90;;;;;;4726377;30;20467;-42
2023/03/30 09:10:18;;;;;;;25.17;22.97;;;14.20;98.20;;;;;;4728607;30;20538;-41
2023/03/30 09:12:53;;;;;;;25.23;23.00;;;14.00;98.30;;;;;;4726150;30;21082;-41
2023/03/30 09:15:44;;;;;;;27.60;25.30;;;13.90;98.80;;;;;;4742421;30;20456;-43
2023/03/30 09:18:18;;;;;;;26.83;24.53;;;13.60;99.20;;;;;;4726356;30;20431;-42
2023/03/30 09:20:46;;;;;;;27.90;25.40;;;13.50;99.60;;;;;;4725968;30;20496;-46
2023/03/30 09:23:14;;;;;;;27.90;25.40;;;13.40;99.90;;;;;;4742737;30;20430;-41
2023/03/30 09:25:52;;;;;;;27.27;24.93;;;13.30;99.90;;;;;;4742801;30;20849;-42
2023/03/30 09:28:28;;;;;;;26.20;24.00;;;13.20;99.90;;;;;;4742938;30;20442;-45
2023/03/30 09:31:15;;;;;;;27.40;25.07;;;13.00;99.90;;;;;;4737015;30;20510;-41
2023/03/30 09:33:52;;;;;;;27.70;25.30;;;12.70;99.90;;;;;;4734341;30;20502;-41
2023/03/30 09:36:26;;;;;;;29.77;26.87;;;12.70;99.90;;;;;;4741709;30;20511;-44
2023/03/30 09:38:52;;;;;;;29.77;27.17;;;12.50;99.90;;;;;;4738279;30;20451;-40
2023/03/30 09:41:32;;;;;;;29.90;27.10;;;12.40;99.90;;;;;;4734036;30;20462;-42
2023/03/30 09:43:59;;;;;;;30.83;27.93;;;12.20;99.90;;;;;;4741066;30;20488;-43
2023/03/30 09:46:24;;;;;;;32.20;29.30;;;12.00;99.90;;;;;;4728455;30;20915;-41
2023/03/30 09:48:50;;;;;;;34.30;31.10;;;11.80;99.90;;;;;;4741800;30;20560;-44
2023/03/30 09:51:27;;;;;;;31.43;28.43;;;11.80;99.90;;;;;;4737392;30;20550;-44
2023/03/30 09:54:03;;;;;;;32.37;29.17;;;11.60;99.90;;;;;;4741709;30;20197;-43
2023/03/30 09:56:48;;;;;;;33.33;30.17;;;11.60;99.90;;;;;;4734333;30;20430;-43
2023/03/30 09:59:32;;;;;;;34.50;31.30;;;11.50;99.90;;;;;;4732841;30;20426;-43
2023/03/30 10:02:19;;;;;;;35.70;32.27;;;11.50;99.90;;;;;;4738000;30;20455;-41
2023/03/30 10:04:57;;;;;;;34.90;31.50;;;11.40;99.90;;;;;;4736482;30;20506;-43
2023/03/30 10:07:33;;;;;;;31.70;28.50;;;11.30;99.90;;;;;;4740556;30;20444;-43
2023/03/30 10:10:11;;;;;;;33.67;30.30;;;11.20;99.90;;;;;;4733812;30;20471;-41
2023/03/30 10:12:36;;;;;;;33.63;30.47;;;11.20;99.90;;;;;;4741924;30;20969;-44
2023/03/30 10:15:03;;;;;;;32.73;29.73;;;11.20;99.90;;;;;;4741698;30;20455;-41
2023/03/30 10:17:29;;;;;;;33.57;30.07;;;11.20;99.90;;;;;;4725972;30;20213;-42
2023/03/30 10:20:35;;;;;;;34.17;30.90;;;11.30;99.90;;;;;;4730456;30;20479;-41
2023/03/30 10:23:13;;;;;;;31.30;28.33;;;11.30;99.90;;;;;;4741513;30;20493;-43
2023/03/30 10:25:41;;;;;;;30.17;27.57;;;11.30;99.90;;;;;;4734082;30;20557;-43
2023/03/30 10:28:25;;;;;;;29.37;26.70;;;11.50;99.90;;;;;;4737391;30;20545;-44
2023/03/30 10:31:04;;;;;;;29.73;27.03;;;11.60;99.90;;;;;;4737339;30;20448;-44
2023/03/30 10:33:30;;;;;;;26.73;24.33;;;11.60;99.90;;;;;;4737419;30;20586;-44
2023/03/30 10:36:02;;;;;;;26.33;24.00;;;11.80;99.90;;;;;;4741653;30;20430;-43
2023/03/30 10:38:32;;;;;;;26.30;24.13;;;11.90;99.90;;;;;;4739963;30;20495;-41
2023/03/30 10:41:06;;;;;;;25.07;22.93;;;11.90;99.90;;;;;;4736862;30;20787;-44
2023/03/30 10:43:34;;;;;;;25.57;23.27;;;12.10;99.90;;;;;;4736860;30;20426;-44
2023/03/30 10:46:16;;;;;;;25.60;23.40;;;12.20;99.90;;;;;;4740620;30;20835;-42
2023/03/30 10:49:13;;;;;;;26.20;24.00;;;12.30;99.90;;;;;;4737825;30;20542;-45
2023/03/30 10:52:13;;;;;;;23.57;21.47;;;12.40;99.90;;;;;;4728347;30;20493;-43
2023/03/30 10:54:48;;;;;;;22.43;20.47;;;12.50;99.90;;;;;;4732102;30;20529;-42
2023/03/30 10:57:20;;;;;;;23.37;21.43;;;12.50;99.90;;;;;;4738561;30;20415;-43
2023/03/30 11:00:11;;;;;;;23.73;21.73;;;12.60;99.90;;;;;;4741186;30;20427;-41
2023/03/30 11:03:14;;;;;;;25.10;22.87;;;12.70;99.90;;;;;;4740966;30;20907;-43
2023/03/30 11:05:48;;;;;;;23.60;21.57;;;12.70;99.90;;;;;;4740877;30;21551;-42
2023/03/30 11:08:28;;;;;;;22.30;20.60;;;12.80;99.90;;;;;;4740105;30;20438;-42
2023/03/30 11:10:56;;;;;;;23.00;21.40;;;12.90;99.90;;;;;;4740951;30;20477;-44
2023/03/30 11:13:23;;;;;;;23.03;20.73;;;12.90;99.90;;;;;;4739703;30;20501;-41
2023/03/30 11:15:56;;;;;;;21.60;20.03;;;13.00;99.90;;;;;;4740029;30;20880;-45
2023/03/30 11:18:30;;;;;;;20.73;19.10;;;13.10;99.90;;;;;;4737083;30;21010;-44
2023/03/30 11:21:14;;;;;;;19.27;17.97;;;13.20;99.90;;;;;;4740247;30;20902;-50
2023/03/30 11:23:53;;;;;;;19.07;17.87;;;13.40;99.90;;;;;;4740161;30;20423;-51
2023/03/30 11:26:46;;;;;;;19.53;17.73;;;13.50;99.90;;;;;;4741221;30;20480;-47
2023/03/30 11:29:28;;;;;;;17.43;16.20;;;13.60;99.90;;;;;;4739537;30;20519;-48
2023/03/30 11:32:20;;;;;;;17.47;16.20;;;13.70;99.90;;;;;;4724700;30;20478;-47
2023/03/30 11:35:17;;;;;;;17.33;16.23;;;13.80;99.90;;;;;;4733917;30;20782;-53
2023/03/30 11:37:57;;;;;;;17.30;16.10;;;13.80;99.90;;;;;;4740786;30;20430;-53
2023/03/30 11:40:28;;;;;;;16.77;15.53;;;13.90;99.90;;;;;;4739566;30;20460;-51
2023/03/30 11:42:54;;;;;;;17.23;16.13;;;13.90;99.90;;;;;;4733817;30;20437;-50
2023/03/30 11:45:36;;;;;;;16.63;15.63;;;14.00;99.90;;;;;;4740206;30;20442;-50
2023/03/30 11:48:29;;;;;;;17.00;15.80;;;14.00;99.90;;;;;;4725599;30;20544;-52
2023/03/30 11:51:13;;;;;;;15.63;14.43;;;14.20;99.90;;;;;;4738716;30;20433;-48
2023/03/30 11:53:51;;;;;;;14.60;13.70;;;14.30;99.90;;;;;;4721629;30;20455;-45
2023/03/30 11:56:35;;;;;;;14.27;13.37;;;14.50;99.90;;;;;;4736574;30;21222;-52
2023/03/30 11:59:07;;;;;;;13.93;13.07;;;14.80;99.90;;;;;;4739267;30;20429;-52
2023/03/30 12:01:59;;;;;;;15.40;14.30;;;15.10;99.90;;;;;;4722098;30;20818;-48
2023/03/30 12:04:37;;;;;;;14.23;13.43;;;15.50;99.90;;;;;;4740469;30;21136;-49
2023/03/30 12:07:10;;;;;;;13.40;12.60;;;16.10;99.90;;;;;;4736173;30;20458;-48
2023/03/30 12:09:45;;;;;;;14.73;13.63;;;16.60;99.90;;;;;;4740031;30;20981;-51
2023/03/30 12:12:14;;;;;;;14.53;13.70;;;16.90;99.90;;;;;;4729056;30;20477;-50
2023/03/30 12:14:52;;;;;;;13.00;12.20;;;17.00;99.90;;;;;;4739960;30;20534;-47
2023/03/30 12:17:50;;;;;;;14.40;13.40;;;17.00;99.90;;;;;;4732576;30;20429;-54
2023/03/30 12:20:15;;;;;;;15.47;14.47;;;16.90;99.90;;;;;;4739037;30;20426;-46
2023/03/30 12:23:10;;;;;;;16.77;15.70;;;16.90;99.90;;;;;;4739849;30;20860;-45
2023/03/30 12:25:54;;;;;;;17.40;16.10;;;16.80;99.90;;;;;;4729189;30;20744;-46
2023/03/30 12:28:24;;;;;;;19.00;17.70;;;17.70;99.90;;;;;;4739488;30;20434;-51
2023/03/30 12:30:59;;;;;;;16.63;15.50;;;18.20;99.90;;;;;;4739772;30;20449;-45
2023/03/30 12:33:28;;;;;;;17.43;16.20;;;18.20;99.90;;;;;;4743158;30;20996;-51
2023/03/30 12:35:57;;;;;;;18.83;17.33;;;17.80;99.20;;;;;;4741717;30;20434;-49
2023/03/30 12:38:26;;;;;;;18.47;17.17;;;17.40;99.80;;;;;;4737427;30;20493;-53
2023/03/30 12:41:13;;;;;;;20.30;18.80;;;17.40;99.90;;;;;;4741433;30;20459;-48
2023/03/30 12:43:46;;;;;;;20.90;19.30;;;17.20;99.90;;;;;;4743112;30;20422;-51
2023/03/30 12:46:34;;;;;;;19.17;17.87;;;17.60;99.90;;;;;;4734009;30;20529;-50
2023/03/30 12:49:21;;;;;;;17.90;16.60;;;17.80;99.90;;;;;;4739435;30;20442;-49
2023/03/30 12:52:16;;;;;;;18.50;17.17;;;18.30;99.80;;;;;;4735474;30;20483;-49
2023/03/30 12:55:03;;;;;;;18.40;17.10;;;19.00;98.20;;;;;;4733316;30;20525;-48